Avery, Iowa
Current Conditions -  °F | °C
As of 10:53 PM on Monday 20 Oct 2014 (Local Time) from KOTM Reporting Station
Clear Clear  
Wind Chill:   Ceiling: Unl
Heat Index:   Visibility: 10mi
Dew Point:   Wind: 3mph
Humidity: 86%   Direction: 280°W
Pressure: 30.04"   Gusts: NA
Location:  41.0299°N, 92.7795°W
Report Text: KOTM 210353Z AUTO 28003KT 10SM CLR 07/05 A3004 RMK AO2 SLP173 T00720050
Loading
Personal Weather Stations






























Interactive Weather Map
Tropical Storm Tracking
New forecast layout! Learn more

10-Day Weather Forecast

Advertisements
Track Severe Weather on mobile